Time;durP1;ratioP1;P1;durP2;ratioP2;P2;SDS_P1;SDS_P2;PMS_P1;PMS_P2;Temp;Humidity;BMP_temperature;BMP_pressure;BME280_temperature;BME280_humidity;BME280_pressure;Samples;Min_cycle;Max_cycle;Signal;HPM_P1;HPM_P2
2023/02/16 00:01:35;;;;;;;5.47;3.83;;;;;;;;;;5071499;28;20110;-50
2023/02/16 00:04:02;;;;;;;5.82;3.40;;;;;;;;;;5072492;28;20114;-51
2023/02/16 00:06:28;;;;;;;5.70;3.38;;;;;;;;;;5073560;28;20032;-49
2023/02/16 00:08:55;;;;;;;5.28;3.55;;;;;;;;;;5072022;28;20034;-52
2023/02/16 00:14:15;;;;;;;5.63;3.70;;;;;;;;;;5059737;28;20440;-53
2023/02/16 00:16:41;;;;;;;5.45;4.13;;;;;;;;;;5072610;28;20021;-52
2023/02/16 00:19:14;;;;;;;4.80;3.72;;;;;;;;;;5072429;28;20074;-53
2023/02/16 00:21:40;;;;;;;6.90;4.28;;;;;;;;;;5072525;28;20071;-50
2023/02/16 00:24:06;;;;;;;4.68;3.40;;;;;;;;;;5072960;28;20052;-53
2023/02/16 00:26:33;;;;;;;6.32;4.00;;;;;;;;;;5072035;28;20531;-49
2023/02/16 00:29:00;;;;;;;6.20;3.83;;;;;;;;;;5069341;28;20123;-52
2023/02/16 00:31:30;;;;;;;6.03;3.75;;;;;;;;;;5056851;28;20477;-48
2023/02/16 00:33:56;;;;;;;5.55;4.10;;;;;;;;;;5072313;28;20064;-51
2023/02/16 00:36:22;;;;;;;5.95;3.65;;;;;;;;;;5073038;28;20020;-48
2023/02/16 00:38:48;;;;;;;5.20;3.25;;;;;;;;;;5071371;28;20481;-48
2023/02/16 00:44:04;;;;;;;3.72;2.88;;;;;;;;;;5064369;28;20031;-51
2023/02/16 00:46:30;;;;;;;6.07;4.05;;;;;;;;;;5057945;28;20028;-48
2023/02/16 00:48:56;;;;;;;4.50;3.22;;;;;;;;;;5071809;28;20040;-48
2023/02/16 00:51:22;;;;;;;6.32;3.35;;;;;;;;;;5072418;28;20048;-48
2023/02/16 00:53:48;;;;;;;6.40;4.22;;;;;;;;;;5071366;28;20027;-48
2023/02/16 00:56:18;;;;;;;6.78;4.15;;;;;;;;;;5072312;28;20440;-50
2023/02/16 00:58:44;;;;;;;4.97;3.60;;;;;;;;;;5067623;28;20447;-51
2023/02/16 01:01:14;;;;;;;6.50;4.07;;;;;;;;;;5059683;28;20027;-50
2023/02/16 01:03:41;;;;;;;5.15;3.90;;;;;;;;;;5070944;28;20029;-50
2023/02/16 01:11:39;;;;;;;5.35;3.80;;;;;;;;;;5071694;28;20059;-48
2023/02/16 01:14:05;;;;;;;7.47;3.92;;;;;;;;;;5071304;28;20493;-48
2023/02/16 01:16:39;;;;;;;6.22;3.60;;;;;;;;;;5071292;28;20504;-48
2023/02/16 01:19:05;;;;;;;4.20;3.13;;;;;;;;;;5071522;28;20478;-51
2023/02/16 01:21:31;;;;;;;4.95;3.55;;;;;;;;;;5071571;28;20025;-48
2023/02/16 01:23:57;;;;;;;6.18;3.53;;;;;;;;;;5070135;28;20039;-52
2023/02/16 01:26:23;;;;;;;4.10;3.22;;;;;;;;;;5068927;28;20070;-49
2023/02/16 01:28:49;;;;;;;6.03;3.70;;;;;;;;;;5068567;28;20036;-48
2023/02/16 01:31:16;;;;;;;5.63;3.47;;;;;;;;;;5071757;28;20031;-49
2023/02/16 01:33:42;;;;;;;5.63;3.50;;;;;;;;;;5070858;28;20044;-48
2023/02/16 01:36:19;;;;;;;5.28;4.03;;;;;;;;;;5063156;28;20025;-48
2023/02/16 01:38:45;;;;;;;4.60;3.03;;;;;;;;;;5059058;28;20428;-49
2023/02/16 01:41:23;;;;;;;4.63;3.00;;;;;;;;;;5066742;28;20081;-52
2023/02/16 01:43:56;;;;;;;5.47;3.63;;;;;;;;;;5070769;28;20024;-49
2023/02/16 01:46:36;;;;;;;5.47;3.75;;;;;;;;;;5071185;28;20012;-51
2023/02/16 01:49:01;;;;;;;6.32;3.80;;;;;;;;;;5071431;28;20044;-52
2023/02/16 01:51:54;;;;;;;5.20;3.65;;;;;;;;;;5071580;28;20073;-52
2023/02/16 01:54:31;;;;;;;4.93;3.20;;;;;;;;;;5031347;28;20500;-49
2023/02/16 01:57:03;;;;;;;5.88;3.42;;;;;;;;;;5067339;28;20035;-49
2023/02/16 01:59:40;;;;;;;5.57;3.50;;;;;;;;;;5070100;28;20028;-48
2023/02/16 02:02:17;;;;;;;3.75;3.13;;;;;;;;;;5066579;28;20107;-49
2023/02/16 02:07:40;;;;;;;5.47;3.42;;;;;;;;;;5070734;28;20036;-47
2023/02/16 02:10:13;;;;;;;4.80;3.20;;;;;;;;;;5069758;28;20441;-48
2023/02/16 02:12:45;;;;;;;4.57;3.25;;;;;;;;;;5070170;28;20377;-48
2023/02/16 02:15:12;;;;;;;5.28;2.80;;;;;;;;;;5069365;28;20060;-47
2023/02/16 02:17:38;;;;;;;3.88;2.83;;;;;;;;;;5070776;28;20055;-47
2023/02/16 02:23:30;;;;;;;6.07;3.42;;;;;;;;;;5070950;28;20029;-48
2023/02/16 02:23:32;;;;;;;4.32;3.10;;;;;;;;;;5071144;28;20410;-48
2023/02/16 02:26:10;;;;;;;4.22;3.03;;;;;;;;;;5072891;28;20017;-49
2023/02/16 02:28:48;;;;;;;4.53;3.15;;;;;;;;;;5070342;28;21857;-47
2023/02/16 02:31:30;;;;;;;4.80;3.20;;;;;;;;;;5067643;28;20039;-48
2023/02/16 02:34:15;;;;;;;4.88;3.17;;;;;;;;;;5070800;28;20025;-49
2023/02/16 02:36:45;;;;;;;5.32;3.10;;;;;;;;;;5074706;28;20059;-49
2023/02/16 02:39:21;;;;;;;4.05;3.03;;;;;;;;;;5074583;28;20500;-48
2023/02/16 02:42:06;;;;;;;4.97;3.78;;;;;;;;;;5074587;28;20377;-48
2023/02/16 02:44:51;;;;;;;3.97;2.80;;;;;;;;;;5071287;28;20055;-48
2023/02/16 02:47:17;;;;;;;4.95;3.15;;;;;;;;;;5074708;28;20032;-48
2023/02/16 02:49:53;;;;;;;4.18;3.00;;;;;;;;;;5073384;28;20031;-48
2023/02/16 02:52:19;;;;;;;2.85;2.33;;;;;;;;;;5075033;28;20032;-47
2023/02/16 03:03:12;;;;;;;4.53;3.05;;;;;;;;;;5063192;28;20032;-48
2023/02/16 03:05:41;;;;;;;3.50;2.70;;;;;;;;;;5072608;28;20031;-48
2023/02/16 03:08:15;;;;;;;4.57;3.40;;;;;;;;;;5071299;28;20032;-48
2023/02/16 03:13:42;;;;;;;4.32;2.95;;;;;;;;;;5068210;28;21432;-51
2023/02/16 03:16:13;;;;;;;3.70;2.90;;;;;;;;;;5069233;28;20017;-48
2023/02/16 03:29:44;;;;;;;4.45;3.00;;;;;;;;;;5066056;28;20063;-49
2023/02/16 03:32:10;;;;;;;5.88;2.95;;;;;;;;;;5072718;28;20020;-49
2023/02/16 03:34:37;;;;;;;5.80;4.53;;;;;;;;;;5070126;28;20055;-50
2023/02/16 03:37:03;;;;;;;4.40;2.83;;;;;;;;;;5072442;28;20016;-47
2023/02/16 03:39:29;;;;;;;5.10;3.50;;;;;;;;;;5071868;28;20020;-47
2023/02/16 03:41:56;;;;;;;3.55;2.47;;;;;;;;;;5072235;28;20024;-48
2023/02/16 03:44:23;;;;;;;4.35;3.13;;;;;;;;;;5069473;28;20497;-49
2023/02/16 03:46:50;;;;;;;6.05;2.97;;;;;;;;;;5071618;28;20024;-48
2023/02/16 03:49:19;;;;;;;5.40;3.15;;;;;;;;;;5070629;28;20043;-47
2023/02/16 03:51:45;;;;;;;3.92;2.75;;;;;;;;;;5069610;28;20028;-48
2023/02/16 03:54:12;;;;;;;4.82;3.05;;;;;;;;;;5069576;28;20021;-49
2023/02/16 03:56:38;;;;;;;5.10;2.90;;;;;;;;;;5071127;28;20031;-52
2023/02/16 03:59:04;;;;;;;4.65;2.97;;;;;;;;;;5072086;28;20028;-48
2023/02/16 04:01:30;;;;;;;3.72;2.65;;;;;;;;;;5071783;28;20095;-47
2023/02/16 04:03:56;;;;;;;4.57;2.80;;;;;;;;;;5071686;28;20126;-47
2023/02/16 04:06:22;;;;;;;3.78;2.88;;;;;;;;;;5065941;28;20082;-51
2023/02/16 04:08:49;;;;;;;2.67;2.45;;;;;;;;;;5071061;28;20067;-48
2023/02/16 04:14:00;;;;;;;4.65;2.80;;;;;;;;;;5071470;28;20562;-52
2023/02/16 04:16:26;;;;;;;3.95;2.80;;;;;;;;;;5072204;28;20094;-49
2023/02/16 04:18:52;;;;;;;3.92;2.85;;;;;;;;;;5070219;28;20040;-49
2023/02/16 04:21:18;;;;;;;4.47;2.53;;;;;;;;;;5070736;28;20464;-47
2023/02/16 04:23:44;;;;;;;5.50;3.13;;;;;;;;;;5066531;28;20108;-50
2023/02/16 04:26:10;;;;;;;3.70;2.65;;;;;;;;;;5069987;28;20020;-52
2023/02/16 04:28:36;;;;;;;4.05;2.60;;;;;;;;;;5069099;28;20421;-49
2023/02/16 04:31:02;;;;;;;3.60;2.17;;;;;;;;;;5067771;28;20021;-50
2023/02/16 04:33:28;;;;;;;4.15;2.85;;;;;;;;;;5067700;28;20047;-49
2023/02/16 04:35:54;;;;;;;4.15;2.30;;;;;;;;;;5070758;28;20082;-51
2023/02/16 04:38:20;;;;;;;4.03;2.65;;;;;;;;;;5071343;28;20099;-49
2023/02/16 04:40:46;;;;;;;4.40;2.92;;;;;;;;;;5069188;28;20102;-48
2023/02/16 04:43:12;;;;;;;3.55;2.42;;;;;;;;;;5070023;28;20025;-52
2023/02/16 04:45:38;;;;;;;5.13;2.83;;;;;;;;;;5070070;28;20515;-51
2023/02/16 04:48:04;;;;;;;4.43;2.70;;;;;;;;;;5070487;28;20060;-49
2023/02/16 04:50:30;;;;;;;4.40;2.72;;;;;;;;;;5069290;28;20456;-48
2023/02/16 04:52:56;;;;;;;3.53;2.63;;;;;;;;;;5068916;28;20016;-51
2023/02/16 04:55:22;;;;;;;3.63;2.88;;;;;;;;;;5067799;28;20108;-52
2023/02/16 04:57:49;;;;;;;3.88;2.90;;;;;;;;;;5069239;28;20043;-52
2023/02/16 05:00:15;;;;;;;3.95;2.80;;;;;;;;;;5070808;28;20021;-48
2023/02/16 05:02:41;;;;;;;4.13;2.75;;;;;;;;;;5071402;28;20075;-49
2023/02/16 05:05:07;;;;;;;4.47;2.80;;;;;;;;;;5071926;28;20032;-48
2023/02/16 05:07:33;;;;;;;3.65;2.53;;;;;;;;;;5071397;28;20052;-48
2023/02/16 05:09:59;;;;;;;3.83;2.65;;;;;;;;;;5071515;28;20076;-48
2023/02/16 05:15:09;;;;;;;3.70;2.55;;;;;;;;;;5065907;28;20055;-49
2023/02/16 05:17:35;;;;;;;4.15;2.80;;;;;;;;;;5070909;28;20048;-50
2023/02/16 05:20:01;;;;;;;3.13;2.70;;;;;;;;;;5064549;28;20024;-48
2023/02/16 05:22:27;;;;;;;3.83;2.58;;;;;;;;;;5071905;28;20370;-48
2023/02/16 05:24:54;;;;;;;4.15;2.85;;;;;;;;;;5067828;28;20060;-49
2023/02/16 05:27:21;;;;;;;3.58;2.50;;;;;;;;;;5071065;28;20052;-48
2023/02/16 05:29:47;;;;;;;4.78;2.38;;;;;;;;;;5070354;28;20036;-51
2023/02/16 05:32:13;;;;;;;4.38;2.38;;;;;;;;;;5071610;28;20025;-48
2023/02/16 05:34:39;;;;;;;3.45;2.58;;;;;;;;;;5070161;28;20032;-47
2023/02/16 05:37:05;;;;;;;3.60;2.65;;;;;;;;;;5071332;28;20525;-49
2023/02/16 05:39:31;;;;;;;4.05;2.80;;;;;;;;;;5052415;28;20502;-49
2023/02/16 05:41:57;;;;;;;3.13;2.25;;;;;;;;;;5071835;28;20070;-47
2023/02/16 05:44:23;;;;;;;3.67;2.83;;;;;;;;;;5071481;28;20103;-48
2023/02/16 05:46:49;;;;;;;3.80;2.38;;;;;;;;;;5062281;28;20036;-48
2023/02/16 05:49:16;;;;;;;3.78;2.70;;;;;;;;;;5066244;28;20085;-48
2023/02/16 05:51:42;;;;;;;3.78;2.42;;;;;;;;;;5070754;28;20040;-48
2023/02/16 05:54:09;;;;;;;4.95;2.60;;;;;;;;;;5071213;28;20025;-48
2023/02/16 05:56:35;;;;;;;4.88;2.55;;;;;;;;;;5070950;28;20031;-50
2023/02/16 05:59:01;;;;;;;3.65;2.50;;;;;;;;;;5070796;28;20389;-48
2023/02/16 06:01:28;;;;;;;3.65;2.53;;;;;;;;;;5071792;28;20027;-48
2023/02/16 06:03:54;;;;;;;4.50;2.83;;;;;;;;;;5070525;28;20106;-50
2023/02/16 06:06:20;;;;;;;3.15;2.42;;;;;;;;;;5071742;28;20031;-47
2023/02/16 06:08:46;;;;;;;3.95;2.70;;;;;;;;;;5069676;28;20028;-47
2023/02/16 06:13:58;;;;;;;3.42;2.63;;;;;;;;;;5070713;28;20101;-48
2023/02/16 06:16:28;;;;;;;5.97;2.85;;;;;;;;;;5071614;28;20023;-50
2023/02/16 06:18:54;;;;;;;3.65;2.65;;;;;;;;;;5070311;28;20086;-50
2023/02/16 06:21:21;;;;;;;5.28;3.00;;;;;;;;;;5071346;28;20028;-49
2023/02/16 06:23:47;;;;;;;3.67;2.58;;;;;;;;;;5069934;28;20025;-48
2023/02/16 06:26:13;;;;;;;3.80;2.78;;;;;;;;;;5071402;28;20024;-49
2023/02/16 06:28:39;;;;;;;3.97;2.67;;;;;;;;;;5069979;28;20052;-53
2023/02/16 06:31:05;;;;;;;10.57;5.68;;;;;;;;;;5053348;28;20064;-51
2023/02/16 06:33:31;;;;;;;9.25;4.63;;;;;;;;;;5070605;28;20032;-49
2023/02/16 06:35:57;;;;;;;6.72;3.92;;;;;;;;;;5070596;28;20029;-48
2023/02/16 06:38:23;;;;;;;6.47;4.00;;;;;;;;;;5070696;28;20024;-52
2023/02/16 06:40:52;;;;;;;6.13;2.90;;;;;;;;;;5070039;28;20089;-53
2023/02/16 06:43:18;;;;;;;4.57;3.35;;;;;;;;;;5071334;28;20032;-52
2023/02/16 06:45:44;;;;;;;5.97;3.13;;;;;;;;;;5070126;28;20020;-52
2023/02/16 06:48:10;;;;;;;5.03;3.33;;;;;;;;;;5070978;28;20056;-53
2023/02/16 06:50:36;;;;;;;6.00;3.33;;;;;;;;;;5070057;28;20071;-51
2023/02/16 06:53:02;;;;;;;8.75;4.30;;;;;;;;;;5071022;28;20071;-52
2023/02/16 06:55:33;;;;;;;4.20;2.78;;;;;;;;;;5070563;28;20052;-49
2023/02/16 06:57:59;;;;;;;5.78;2.85;;;;;;;;;;5071159;28;20161;-48
2023/02/16 07:00:25;;;;;;;4.20;3.00;;;;;;;;;;5070383;28;20507;-52
2023/02/16 07:02:51;;;;;;;4.40;2.58;;;;;;;;;;5070480;28;20210;-53
2023/02/16 07:05:17;;;;;;;4.40;2.88;;;;;;;;;;5070416;28;20107;-48
2023/02/16 07:07:43;;;;;;;6.20;3.00;;;;;;;;;;5070240;28;20149;-48
2023/02/16 07:10:09;;;;;;;5.30;2.95;;;;;;;;;;5069609;28;20059;-51
2023/02/16 07:12:35;;;;;;;6.40;3.30;;;;;;;;;;5072172;28;20354;-47
2023/02/16 07:15:01;;;;;;;6.65;3.00;;;;;;;;;;5073939;28;20035;-49
2023/02/16 07:17:27;;;;;;;5.40;3.25;;;;;;;;;;5074183;28;20027;-47
2023/02/16 07:19:53;;;;;;;6.82;3.17;;;;;;;;;;5073133;28;20107;-51
2023/02/16 07:22:19;;;;;;;4.18;2.50;;;;;;;;;;5074057;28;20021;-48
2023/02/16 07:24:45;;;;;;;7.32;3.30;;;;;;;;;;5072877;28;20086;-49
2023/02/16 07:27:11;;;;;;;4.90;2.92;;;;;;;;;;5074675;28;20059;-50
2023/02/16 07:29:37;;;;;;;5.10;2.83;;;;;;;;;;5073038;28;20028;-49
2023/02/16 07:32:03;;;;;;;6.57;2.90;;;;;;;;;;5074206;28;20025;-51
2023/02/16 07:34:29;;;;;;;6.03;2.78;;;;;;;;;;5073530;28;20475;-48
2023/02/16 07:36:55;;;;;;;4.63;2.70;;;;;;;;;;5073489;28;20050;-50
2023/02/16 07:39:21;;;;;;;5.47;3.00;;;;;;;;;;5073200;28;20445;-51
2023/02/16 07:41:47;;;;;;;5.65;3.40;;;;;;;;;;5073309;28;20029;-49
2023/02/16 07:44:13;;;;;;;5.82;3.15;;;;;;;;;;5073713;28;20097;-49
2023/02/16 07:46:39;;;;;;;5.53;2.88;;;;;;;;;;5073257;28;20433;-53
2023/02/16 07:49:05;;;;;;;6.57;3.00;;;;;;;;;;5073330;28;20077;-50
2023/02/16 07:51:31;;;;;;;8.27;2.83;;;;;;;;;;5073107;28;20107;-50
2023/02/16 07:53:59;;;;;;;7.15;3.47;;;;;;;;;;5066102;28;20083;-48
2023/02/16 07:56:27;;;;;;;5.13;3.03;;;;;;;;;;5061309;28;20390;-47
2023/02/16 07:58:53;;;;;;;4.80;2.92;;;;;;;;;;5052868;28;20021;-48
2023/02/16 08:01:19;;;;;;;5.85;2.65;;;;;;;;;;5072756;28;20371;-48
2023/02/16 08:03:45;;;;;;;4.10;2.85;;;;;;;;;;5072430;28;20031;-49
2023/02/16 08:06:12;;;;;;;5.80;2.85;;;;;;;;;;5073523;28;20021;-53
2023/02/16 08:08:38;;;;;;;5.60;2.97;;;;;;;;;;5068241;28;20386;-48
2023/02/16 08:11:08;;;;;;;3.72;2.65;;;;;;;;;;5062614;28;20047;-48
2023/02/16 08:13:34;;;;;;;5.80;2.78;;;;;;;;;;5067261;28;20028;-52
2023/02/16 08:16:00;;;;;;;5.35;3.55;;;;;;;;;;5070107;28;20032;-49
2023/02/16 08:18:26;;;;;;;5.38;2.65;;;;;;;;;;5055181;28;20037;-47
2023/02/16 08:20:52;;;;;;;3.55;2.58;;;;;;;;;;5059869;28;20028;-48
2023/02/16 08:23:18;;;;;;;4.57;2.60;;;;;;;;;;5072405;28;20017;-52
2023/02/16 08:25:44;;;;;;;5.45;2.83;;;;;;;;;;5071663;28;20023;-51
2023/02/16 08:28:13;;;;;;;3.88;2.92;;;;;;;;;;5073059;28;20020;-47
2023/02/16 08:30:39;;;;;;;7.43;3.13;;;;;;;;;;5071551;28;20025;-48
2023/02/16 08:33:05;;;;;;;4.10;2.58;;;;;;;;;;5067366;28;20539;-49
2023/02/16 08:35:31;;;;;;;5.35;3.00;;;;;;;;;;5052083;28;20024;-48
2023/02/16 08:37:58;;;;;;;3.75;3.38;;;;;;;;;;5052719;28;20043;-47
2023/02/16 08:40:25;;;;;;;6.22;3.30;;;;;;;;;;5056821;28;20031;-48
2023/02/16 08:42:51;;;;;;;4.40;3.05;;;;;;;;;;5071633;28;20063;-48
2023/02/16 08:45:17;;;;;;;6.68;3.65;;;;;;;;;;5065107;28;20097;-49
2023/02/16 08:47:43;;;;;;;5.63;3.22;;;;;;;;;;5071648;28;20027;-51
2023/02/16 08:50:10;;;;;;;6.55;3.67;;;;;;;;;;5072054;28;20047;-50
2023/02/16 08:52:36;;;;;;;4.10;2.60;;;;;;;;;;5071761;28;20027;-47
2023/02/16 08:55:02;;;;;;;4.40;2.60;;;;;;;;;;5071883;28;20130;-48
2023/02/16 08:57:28;;;;;;;5.30;3.25;;;;;;;;;;5071913;28;20374;-50
2023/02/16 09:00:32;;;;;;;4.50;3.22;;;;;;;;;;5066521;28;20044;-50
2023/02/16 09:02:40;;;;;;;5.75;3.15;;;;;;;;;;5067250;28;20036;-49
2023/02/16 09:05:06;;;;;;;6.65;3.60;;;;;;;;;;5067159;28;20033;-48
2023/02/16 09:07:33;;;;;;;5.10;3.15;;;;;;;;;;5052901;28;20025;-50
2023/02/16 09:10:00;;;;;;;5.78;3.60;;;;;;;;;;5050194;28;20041;-48
2023/02/16 09:12:26;;;;;;;6.15;3.05;;;;;;;;;;5065250;28;20036;-51
2023/02/16 09:14:53;;;;;;;4.50;2.67;;;;;;;;;;5055592;28;20592;-49
2023/02/16 09:17:19;;;;;;;6.40;3.30;;;;;;;;;;5070835;28;20033;-49
2023/02/16 09:19:45;;;;;;;4.68;3.00;;;;;;;;;;5061519;28;20035;-48
2023/02/16 09:22:11;;;;;;;8.07;2.80;;;;;;;;;;5070474;28;20876;-48
2023/02/16 09:24:37;;;;;;;4.05;2.58;;;;;;;;;;5065526;28;20040;-47
2023/02/16 09:27:03;;;;;;;4.70;2.63;;;;;;;;;;5063558;28;20539;-48
2023/02/16 09:29:29;;;;;;;8.82;3.22;;;;;;;;;;5041881;28;20049;-51
2023/02/16 09:31:55;;;;;;;5.38;3.22;;;;;;;;;;5063229;28;20062;-48
2023/02/16 09:34:22;;;;;;;5.88;3.80;;;;;;;;;;5059159;28;20131;-48
2023/02/16 09:36:49;;;;;;;6.05;3.25;;;;;;;;;;5064060;28;20036;-47
2023/02/16 09:39:15;;;;;;;4.55;2.83;;;;;;;;;;5066041;28;20384;-48
2023/02/16 09:41:54;;;;;;;5.50;3.00;;;;;;;;;;5069223;28;20048;-48
2023/02/16 09:44:30;;;;;;;4.85;3.47;;;;;;;;;;5057118;28;20389;-48
2023/02/16 09:46:57;;;;;;;4.70;3.00;;;;;;;;;;5060255;28;20048;-48
2023/02/16 09:49:24;;;;;;;4.95;3.00;;;;;;;;;;5066129;28;20044;-48
2023/02/16 09:51:53;;;;;;;4.72;3.20;;;;;;;;;;5069216;28;20029;-47
2023/02/16 09:54:27;;;;;;;3.47;2.72;;;;;;;;;;5048493;28;20492;-48
2023/02/16 09:56:56;;;;;;;5.82;3.60;;;;;;;;;;5068849;28;20362;-52
2023/02/16 09:59:41;;;;;;;4.07;2.67;;;;;;;;;;5065254;28;20078;-48
2023/02/16 10:02:19;;;;;;;4.95;2.75;;;;;;;;;;5059920;28;20055;-48
2023/02/16 10:05:04;;;;;;;3.28;2.33;;;;;;;;;;5067024;28;20025;-47
2023/02/16 10:07:42;;;;;;;5.18;3.25;;;;;;;;;;5065190;28;20033;-50
2023/02/16 10:10:13;;;;;;;4.90;3.42;;;;;;;;;;5057833;28;20076;-48
2023/02/16 10:12:42;;;;;;;7.67;3.67;;;;;;;;;;5057792;28;20040;-48
2023/02/16 10:15:13;;;;;;;7.05;4.30;;;;;;;;;;5063352;28;20041;-48
2023/02/16 10:17:47;;;;;;;7.18;4.15;;;;;;;;;;5065684;28;20017;-47
2023/02/16 10:20:16;;;;;;;4.93;3.45;;;;;;;;;;5061889;28;20037;-47
2023/02/16 10:22:58;;;;;;;7.35;3.65;;;;;;;;;;5061940;28;20385;-47
2023/02/16 10:25:36;;;;;;;6.45;4.45;;;;;;;;;;5061601;28;20032;-47
2023/02/16 10:28:12;;;;;;;5.93;3.38;;;;;;;;;;5057849;28;20500;-47
2023/02/16 10:30:39;;;;;;;7.05;3.70;;;;;;;;;;5066084;28;20052;-50
2023/02/16 10:33:15;;;;;;;6.68;3.70;;;;;;;;;;5060117;28;20017;-50
2023/02/16 10:35:43;;;;;;;5.47;3.10;;;;;;;;;;5054413;28;20116;-49
2023/02/16 10:38:14;;;;;;;5.30;3.15;;;;;;;;;;5062077;28;20112;-52
2023/02/16 10:40:47;;;;;;;6.70;3.47;;;;;;;;;;5058943;28;20071;-49
2023/02/16 10:43:31;;;;;;;4.95;3.78;;;;;;;;;;5066333;28;20079;-49
2023/02/16 10:45:58;;;;;;;6.43;3.50;;;;;;;;;;5067616;28;20035;-47
2023/02/16 10:48:25;;;;;;;6.07;3.53;;;;;;;;;;5073064;28;20389;-52
2023/02/16 10:50:57;;;;;;;5.53;3.17;;;;;;;;;;5067515;28;20049;-49
2023/02/16 10:53:42;;;;;;;6.85;3.60;;;;;;;;;;5070336;28;20412;-51
2023/02/16 10:56:14;;;;;;;4.72;2.90;;;;;;;;;;5067442;28;20036;-49
2023/02/16 10:58:41;;;;;;;4.70;3.05;;;;;;;;;;5060261;28;20021;-51
2023/02/16 11:01:33;;;;;;;4.57;2.75;;;;;;;;;;5062697;28;20079;-48
2023/02/16 11:03:59;;;;;;;;;;;;;;;;;;5063278;28;20086;-47
2023/02/16 11:06:25;;;;;;;3.70;2.55;;;;;;;;;;5065387;28;19909;-49
2023/02/16 11:08:56;;;;;;;5.25;2.42;;;;;;;;;;5067629;28;20103;-48
2023/02/16 11:11:49;;;;;;;5.35;2.70;;;;;;;;;;5071448;28;20505;-47
2023/02/16 11:14:22;;;;;;;4.82;2.90;;;;;;;;;;5061582;28;20051;-52
2023/02/16 11:16:49;;;;;;;3.95;2.40;;;;;;;;;;5068079;28;20090;-47
2023/02/16 11:19:21;;;;;;;6.65;2.95;;;;;;;;;;5071149;28;20040;-46
2023/02/16 11:21:54;;;;;;;3.92;2.15;;;;;;;;;;5070081;28;20466;-49
2023/02/16 11:24:27;;;;;;;3.83;2.30;;;;;;;;;;5064328;28;20111;-52
2023/02/16 11:27:00;;;;;;;6.70;3.08;;;;;;;;;;5066661;28;20052;-50
2023/02/16 11:29:26;;;;;;;4.13;2.63;;;;;;;;;;5058619;28;20426;-49
2023/02/16 11:31:53;;;;;;;5.35;3.20;;;;;;;;;;5064213;28;20036;-50
2023/02/16 11:34:34;;;;;;;4.75;3.00;;;;;;;;;;5060185;28;20032;-46
2023/02/16 11:37:01;;;;;;;5.78;3.10;;;;;;;;;;5064323;28;20470;-47
2023/02/16 11:39:29;;;;;;;5.10;2.47;;;;;;;;;;5065754;28;20040;-50
2023/02/16 11:41:57;;;;;;;3.28;2.22;;;;;;;;;;5068245;28;20036;-47
2023/02/16 11:44:40;;;;;;;4.18;2.78;;;;;;;;;;5058841;28;20048;-49
2023/02/16 11:47:21;;;;;;;3.30;2.40;;;;;;;;;;5071794;28;20970;-50
2023/02/16 11:49:48;;;;;;;3.65;2.40;;;;;;;;;;5052305;28;20389;-47
2023/02/16 11:52:23;;;;;;;4.43;2.30;;;;;;;;;;5070063;28;20234;-50
2023/02/16 11:54:51;;;;;;;4.00;2.85;;;;;;;;;;5058226;28;20606;-51
2023/02/16 11:57:23;;;;;;;4.25;2.40;;;;;;;;;;5069822;28;20163;-52
2023/02/16 11:59:49;;;;;;;4.55;2.78;;;;;;;;;;5066997;28;20028;-47
2023/02/16 12:02:24;;;;;;;4.95;2.92;;;;;;;;;;5063803;28;20032;-51
2023/02/16 12:04:56;;;;;;;5.03;2.55;;;;;;;;;;5064767;28;20047;-50
2023/02/16 12:07:31;;;;;;;4.40;3.30;;;;;;;;;;5061699;28;20037;-52
2023/02/16 12:10:03;;;;;;;4.78;2.78;;;;;;;;;;5067381;28;20076;-50
2023/02/16 12:12:52;;;;;;;8.95;2.92;;;;;;;;;;5071186;28;20044;-48
2023/02/16 12:15:27;;;;;;;4.70;2.72;;;;;;;;;;5057667;28;20122;-47
2023/02/16 12:18:22;;;;;;;5.95;2.63;;;;;;;;;;5070104;28;20072;-52
2023/02/16 12:20:52;;;;;;;4.80;2.55;;;;;;;;;;5038388;28;20106;-49
2023/02/16 12:23:37;;;;;;;4.45;2.70;;;;;;;;;;5068880;28;20056;-47
2023/02/16 12:26:21;;;;;;;6.03;2.95;;;;;;;;;;5063663;28;20021;-52
2023/02/16 12:29:10;;;;;;;4.68;2.53;;;;;;;;;;5064237;28;20037;-49
2023/02/16 12:31:47;;;;;;;4.63;2.20;;;;;;;;;;5064873;28;20067;-49
2023/02/16 12:34:32;;;;;;;3.25;2.30;;;;;;;;;;5053450;28;20068;-51
2023/02/16 12:37:01;;;;;;;4.97;2.40;;;;;;;;;;5062606;28;20043;-49
2023/02/16 12:39:38;;;;;;;3.53;2.25;;;;;;;;;;5060069;28;20029;-48
2023/02/16 12:42:11;;;;;;;4.30;2.72;;;;;;;;;;5068042;28;20462;-51
2023/02/16 12:44:41;;;;;;;5.40;2.30;;;;;;;;;;5059795;28;20350;-48
2023/02/16 12:47:12;;;;;;;4.88;2.40;;;;;;;;;;5062364;28;20037;-51
2023/02/16 12:49:57;;;;;;;4.07;2.35;;;;;;;;;;5060782;28;20036;-50
2023/02/16 12:52:30;;;;;;;4.28;2.50;;;;;;;;;;5069713;28;20087;-51
2023/02/16 12:54:59;;;;;;;4.13;1.88;;;;;;;;;;5059045;28;20028;-49
2023/02/16 12:57:26;;;;;;;2.85;2.13;;;;;;;;;;5055370;28;20489;-52
2023/02/16 13:00:03;;;;;;;3.40;2.20;;;;;;;;;;5068416;28;20037;-48
2023/02/16 13:02:39;;;;;;;3.35;2.38;;;;;;;;;;5071232;28;20040;-47
2023/02/16 13:05:07;;;;;;;4.65;2.30;;;;;;;;;;5066392;28;20448;-53
2023/02/16 13:07:45;;;;;;;3.15;2.40;;;;;;;;;;5050890;28;20037;-51
2023/02/16 13:10:27;;;;;;;4.18;2.17;;;;;;;;;;5069277;28;20067;-50
2023/02/16 13:12:56;;;;;;;4.43;2.13;;;;;;;;;;5058493;28;20044;-50
2023/02/16 13:15:30;;;;;;;4.80;2.38;;;;;;;;;;5069652;28;20485;-50
2023/02/16 13:17:57;;;;;;;3.60;2.03;;;;;;;;;;5062845;28;20044;-49
2023/02/16 13:20:23;;;;;;;3.28;2.05;;;;;;;;;;5070442;28;20382;-53
2023/02/16 13:22:52;;;;;;;6.80;2.22;;;;;;;;;;5066582;28;20127;-53
2023/02/16 13:25:21;;;;;;;6.75;2.40;;;;;;;;;;5067921;28;20052;-50
2023/02/16 13:28:06;;;;;;;3.05;2.30;;;;;;;;;;5063037;28;20032;-53
2023/02/16 13:30:34;;;;;;;3.60;1.92;;;;;;;;;;5059433;28;20040;-50
2023/02/16 13:33:19;;;;;;;3.42;2.05;;;;;;;;;;5069241;28;20481;-53
2023/02/16 13:36:09;;;;;;;3.88;2.00;;;;;;;;;;5062105;28;20111;-53
2023/02/16 13:38:42;;;;;;;3.70;2.22;;;;;;;;;;5026324;28;20098;-49
2023/02/16 13:41:17;;;;;;;2.78;2.00;;;;;;;;;;5064644;28;20047;-52
2023/02/16 13:43:47;;;;;;;3.80;2.13;;;;;;;;;;5068401;28;20029;-53
2023/02/16 13:46:15;;;;;;;3.70;2.20;;;;;;;;;;5064515;28;20028;-51
2023/02/16 13:48:46;;;;;;;3.70;2.33;;;;;;;;;;5067206;28;20049;-53
2023/02/16 13:51:14;;;;;;;2.33;1.83;;;;;;;;;;5064398;28;20106;-52
2023/02/16 13:53:42;;;;;;;3.90;2.38;;;;;;;;;;5052028;28;20048;-50
2023/02/16 13:56:31;;;;;;;3.83;1.73;;;;;;;;;;5065339;28;20107;-51
2023/02/16 13:58:59;;;;;;;4.35;2.08;;;;;;;;;;5052919;28;20033;-54
2023/02/16 14:01:35;;;;;;;3.95;2.00;;;;;;;;;;5062971;28;20033;-48
2023/02/16 14:04:02;;;;;;;2.58;1.98;;;;;;;;;;5060159;28;20016;-52
2023/02/16 14:06:31;;;;;;;3.38;2.15;;;;;;;;;;5056574;28;20040;-51
2023/02/16 14:09:12;;;;;;;3.17;2.00;;;;;;;;;;5060572;28;20556;-50
2023/02/16 14:11:56;;;;;;;3.97;2.00;;;;;;;;;;5072730;28;20023;-49
2023/02/16 14:14:33;;;;;;;2.92;1.80;;;;;;;;;;5067293;28;20376;-52
2023/02/16 14:17:22;;;;;;;3.75;2.10;;;;;;;;;;5064559;28;20045;-53
2023/02/16 14:19:53;;;;;;;3.03;2.10;;;;;;;;;;5052740;28;20179;-51
2023/02/16 14:22:27;;;;;;;3.40;2.33;;;;;;;;;;5063955;28;20107;-53
2023/02/16 14:24:55;;;;;;;3.35;2.00;;;;;;;;;;5068791;28;20103;-51
2023/02/16 14:27:39;;;;;;;4.78;2.40;;;;;;;;;;5069539;28;20417;-49
2023/02/16 14:30:12;;;;;;;2.83;1.90;;;;;;;;;;5073843;28;20086;-52
2023/02/16 14:32:38;;;;;;;3.45;2.08;;;;;;;;;;5071776;28;20049;-49
2023/02/16 14:35:06;;;;;;;4.43;2.03;;;;;;;;;;5069627;28;20104;-50
2023/02/16 14:37:59;;;;;;;3.60;2.25;;;;;;;;;;5070802;28;20044;-49
2023/02/16 14:40:34;;;;;;;2.80;2.10;;;;;;;;;;5051088;28;20554;-53
2023/02/16 14:43:04;;;;;;;11.05;2.72;;;;;;;;;;5072390;28;20138;-50
2023/02/16 14:45:49;;;;;;;2.85;2.08;;;;;;;;;;5073254;28;20035;-53
2023/02/16 14:48:28;;;;;;;2.58;1.80;;;;;;;;;;5060855;28;20039;-51
2023/02/16 14:51:10;;;;;;;2.90;1.88;;;;;;;;;;5059880;28;20051;-50
2023/02/16 14:53:54;;;;;;;3.60;2.22;;;;;;;;;;5060167;28;20056;-51
2023/02/16 14:56:31;;;;;;;2.95;1.90;;;;;;;;;;5057786;28;20036;-51
2023/02/16 14:59:01;;;;;;;4.63;2.30;;;;;;;;;;5062084;28;20048;-51
2023/02/16 15:01:27;;;;;;;5.15;2.60;;;;;;;;;;5056732;28;20028;-53
2023/02/16 15:03:55;;;;;;;4.68;2.30;;;;;;;;;;5064937;28;20024;-50
2023/02/16 15:06:32;;;;;;;4.57;2.63;;;;;;;;;;5062096;28;20017;-53
2023/02/16 15:09:00;;;;;;;4.82;2.08;;;;;;;;;;5071712;28;20036;-53
2023/02/16 15:11:26;;;;;;;4.07;2.22;;;;;;;;;;5061013;28;20033;-51
2023/02/16 15:13:52;;;;;;;2.75;1.80;;;;;;;;;;5070845;28;20063;-51
2023/02/16 15:16:19;;;;;;;4.95;3.08;;;;;;;;;;5067204;28;20021;-52
2023/02/16 15:18:48;;;;;;;5.18;1.83;;;;;;;;;;5069206;28;20039;-49
2023/02/16 15:21:18;;;;;;;2.30;1.60;;;;;;;;;;5066596;28;20119;-51
2023/02/16 15:23:50;;;;;;;2.58;1.83;;;;;;;;;;5071717;28;20048;-51
2023/02/16 15:26:42;;;;;;;5.35;2.28;;;;;;;;;;5071544;28;20025;-49
2023/02/16 15:29:09;;;;;;;;;;;;;;;;;;5065144;28;20175;-52
2023/02/16 15:31:36;;;;;;;4.25;2.05;;;;;;;;;;5063944;28;19999;-51
2023/02/16 15:34:06;;;;;;;3.22;1.95;;;;;;;;;;5064250;28;20032;-49
2023/02/16 15:36:41;;;;;;;3.38;1.92;;;;;;;;;;5064863;28;20021;-47
2023/02/16 15:39:08;;;;;;;3.60;1.95;;;;;;;;;;5064889;28;20044;-49
2023/02/16 15:41:38;;;;;;;3.05;2.17;;;;;;;;;;5069858;28;20039;-49
2023/02/16 15:44:24;;;;;;;5.53;2.00;;;;;;;;;;5071830;28;20052;-50
2023/02/16 15:46:51;;;;;;;4.10;1.92;;;;;;;;;;5059255;28;20025;-48